Time;durP1;ratioP1;P1;durP2;ratioP2;P2;SDS_P1;SDS_P2;PMS_P1;PMS_P2;Temp;Humidity;BMP_temperature;BMP_pressure;BME280_temperature;BME280_humidity;BME280_pressure;Samples;Min_cycle;Max_cycle;Signal;HPM_P1;HPM_P2
2022/08/06 00:00:05;;;;;;;6.00;5.40;;;;;;;;;;5072749;28;20039;-82
2022/08/06 00:02:31;;;;;;;6.93;5.40;;;;;;;;;;5073007;28;20391;-82
2022/08/06 00:04:58;;;;;;;7.18;5.55;;;;;;;;;;5072640;28;20040;-82
2022/08/06 00:07:25;;;;;;;5.47;4.97;;;;;;;;;;5072613;28;20033;-80
2022/08/06 00:09:51;;;;;;;5.50;4.95;;;;;;;;;;5072548;28;20107;-82
2022/08/06 00:12:17;;;;;;;6.43;5.45;;;;;;;;;;5072587;28;20078;-83
2022/08/06 00:14:43;;;;;;;5.72;5.22;;;;;;;;;;5072788;28;20028;-83
2022/08/06 00:17:10;;;;;;;6.43;4.57;;;;;;;;;;5072394;28;20484;-82
2022/08/06 00:19:36;;;;;;;5.43;5.00;;;;;;;;;;5072738;28;20066;-86
2022/08/06 00:22:02;;;;;;;6.65;5.80;;;;;;;;;;5072458;28;20036;-85
2022/08/06 00:24:28;;;;;;;6.57;4.72;;;;;;;;;;5072638;28;20041;-81
2022/08/06 00:26:54;;;;;;;5.47;4.90;;;;;;;;;;5072398;28;20047;-83
2022/08/06 00:29:20;;;;;;;6.70;6.03;;;;;;;;;;5072564;28;20032;-83
2022/08/06 00:31:46;;;;;;;5.30;4.80;;;;;;;;;;5072395;28;20052;-83
2022/08/06 00:34:12;;;;;;;5.85;5.30;;;;;;;;;;5053598;28;20035;-81
2022/08/06 00:36:38;;;;;;;6.38;5.45;;;;;;;;;;5072522;28;20064;-81
2022/08/06 00:39:05;;;;;;;6.05;5.55;;;;;;;;;;5072084;28;20072;-80
2022/08/06 00:41:32;;;;;;;6.07;5.57;;;;;;;;;;5072557;28;20028;-83
2022/08/06 00:43:59;;;;;;;6.25;5.75;;;;;;;;;;5072390;28;20032;-81
2022/08/06 00:46:25;;;;;;;6.78;5.78;;;;;;;;;;5072358;28;20032;-85
2022/08/06 00:48:52;;;;;;;6.35;5.75;;;;;;;;;;5072157;28;20044;-82
2022/08/06 00:51:18;;;;;;;6.20;5.68;;;;;;;;;;5072172;28;20485;-83
2022/08/06 00:53:44;;;;;;;6.10;5.60;;;;;;;;;;5072332;28;20395;-82
2022/08/06 00:56:10;;;;;;;5.55;5.05;;;;;;;;;;5072076;28;20029;-83
2022/08/06 00:58:36;;;;;;;7.57;5.55;;;;;;;;;;5053859;28;20043;-84
2022/08/06 01:01:02;;;;;;;7.72;6.22;;;;;;;;;;5054198;28;20114;-84
2022/08/06 01:03:29;;;;;;;6.57;5.82;;;;;;;;;;5072003;28;20033;-82
2022/08/06 01:05:55;;;;;;;6.57;5.95;;;;;;;;;;5072193;28;20036;-81
2022/08/06 01:08:21;;;;;;;6.25;5.57;;;;;;;;;;5071806;28;20082;-83
2022/08/06 01:10:47;;;;;;;5.97;5.47;;;;;;;;;;5072184;28;20033;-84
2022/08/06 01:13:13;;;;;;;6.13;5.53;;;;;;;;;;5071892;28;20419;-85
2022/08/06 01:15:41;;;;;;;5.85;5.05;;;;;;;;;;5054139;28;20086;-83
2022/08/06 01:18:12;;;;;;;5.45;4.95;;;;;;;;;;5071596;28;20025;-81
2022/08/06 01:20:53;;;;;;;6.22;4.95;;;;;;;;;;5072135;28;20116;-83
2022/08/06 01:23:38;;;;;;;6.07;5.47;;;;;;;;;;5054085;28;20480;-83
2022/08/06 01:26:16;;;;;;;6.47;5.30;;;;;;;;;;5054005;28;20055;-82
2022/08/06 01:28:44;;;;;;;5.63;5.13;;;;;;;;;;5053440;28;20423;-82
2022/08/06 01:31:11;;;;;;;6.35;5.70;;;;;;;;;;5071849;28;20044;-83
2022/08/06 01:33:39;;;;;;;5.93;5.40;;;;;;;;;;5071770;28;20111;-81
2022/08/06 01:36:08;;;;;;;8.38;5.55;;;;;;;;;;5072066;28;20033;-82
2022/08/06 01:38:37;;;;;;;5.78;5.28;;;;;;;;;;5053388;28;20039;-83
2022/08/06 01:41:05;;;;;;;6.15;5.65;;;;;;;;;;5054314;28;20091;-81
2022/08/06 01:43:33;;;;;;;6.50;5.90;;;;;;;;;;5071572;28;20040;-84
2022/08/06 01:46:00;;;;;;;6.65;6.00;;;;;;;;;;5074312;28;20063;-82
2022/08/06 01:48:27;;;;;;;7.13;6.50;;;;;;;;;;5075043;28;20033;-79
2022/08/06 01:50:56;;;;;;;6.93;6.13;;;;;;;;;;5057439;28;20124;-83
2022/08/06 01:53:29;;;;;;;6.97;6.38;;;;;;;;;;5075194;28;20077;-81
2022/08/06 01:55:59;;;;;;;6.57;5.97;;;;;;;;;;5075550;28;20040;-80
2022/08/06 01:58:27;;;;;;;7.47;6.75;;;;;;;;;;5074990;28;20089;-82
2022/08/06 02:00:55;;;;;;;6.95;6.25;;;;;;;;;;5075350;28;20036;-84
2022/08/06 02:03:31;;;;;;;6.47;5.65;;;;;;;;;;5057107;28;20390;-81
2022/08/06 02:05:58;;;;;;;6.35;5.72;;;;;;;;;;5075227;28;20033;-82
2022/08/06 02:08:26;;;;;;;5.72;5.15;;;;;;;;;;5074752;28;20109;-83
2022/08/06 02:10:53;;;;;;;7.50;6.80;;;;;;;;;;5075135;28;20060;-80
2022/08/06 02:13:21;;;;;;;6.78;6.18;;;;;;;;;;5074818;28;20067;-83
2022/08/06 02:15:48;;;;;;;7.07;6.47;;;;;;;;;;5074829;28;20654;-80
2022/08/06 02:18:15;;;;;;;7.47;6.80;;;;;;;;;;5074758;28;20032;-82
2022/08/06 02:20:44;;;;;;;7.90;7.13;;;;;;;;;;5075089;28;20033;-82
2022/08/06 02:23:13;;;;;;;8.95;7.22;;;;;;;;;;5074758;28;20043;-83
2022/08/06 02:25:41;;;;;;;9.23;8.23;;;;;;;;;;5074669;28;20098;-79
2022/08/06 02:28:07;;;;;;;9.43;8.43;;;;;;;;;;5056712;28;20033;-82
2022/08/06 02:30:36;;;;;;;9.20;8.40;;;;;;;;;;5056527;28;20056;-82
2022/08/06 02:33:02;;;;;;;10.40;9.30;;;;;;;;;;5074598;28;20043;-82
2022/08/06 02:35:30;;;;;;;10.30;9.30;;;;;;;;;;5056510;28;20055;-83
2022/08/06 02:38:04;;;;;;;10.30;9.23;;;;;;;;;;5056629;28;20502;-84
2022/08/06 02:40:50;;;;;;;9.50;8.60;;;;;;;;;;5056589;28;20037;-82
2022/08/06 02:43:19;;;;;;;10.13;9.23;;;;;;;;;;5074554;28;20029;-81
2022/08/06 02:45:45;;;;;;;10.20;9.27;;;;;;;;;;5073995;28;20081;-82
2022/08/06 02:48:11;;;;;;;9.75;8.95;;;;;;;;;;5074505;28;20029;-85
2022/08/06 02:50:55;;;;;;;10.50;9.50;;;;;;;;;;5074248;28;20037;-82
2022/08/06 02:53:26;;;;;;;9.93;8.93;;;;;;;;;;5074349;28;20102;-82
2022/08/06 02:55:57;;;;;;;10.45;9.45;;;;;;;;;;5074053;28;20035;-83
2022/08/06 02:58:26;;;;;;;11.30;10.20;;;;;;;;;;5073402;28;20427;-83
2022/08/06 03:00:53;;;;;;;11.55;10.32;;;;;;;;;;5074208;28;20144;-82
2022/08/06 03:03:21;;;;;;;15.82;14.32;;;;;;;;;;5056050;28;20036;-81
2022/08/06 03:05:47;;;;;;;16.80;15.10;;;;;;;;;;5073918;28;20052;-82
2022/08/06 03:08:18;;;;;;;11.50;10.40;;;;;;;;;;5074045;28;20040;-85
2022/08/06 03:10:45;;;;;;;12.13;10.85;;;;;;;;;;5055934;28;20045;-84
2022/08/06 03:13:12;;;;;;;11.52;10.38;;;;;;;;;;5073982;28;20031;-79
2022/08/06 03:15:39;;;;;;;10.32;9.30;;;;;;;;;;5073531;28;20047;-83
2022/08/06 03:18:06;;;;;;;9.30;8.50;;;;;;;;;;5073861;28;20029;-84
2022/08/06 03:20:34;;;;;;;9.55;8.55;;;;;;;;;;5073549;28;20039;-82
2022/08/06 03:23:02;;;;;;;9.55;8.70;;;;;;;;;;5073713;28;20036;-82
2022/08/06 03:25:29;;;;;;;9.52;8.60;;;;;;;;;;5073116;28;20033;-80
2022/08/06 03:27:56;;;;;;;10.65;8.55;;;;;;;;;;5055813;28;20029;-86
2022/08/06 03:30:23;;;;;;;10.13;8.13;;;;;;;;;;5073222;28;20491;-82
2022/08/06 03:32:50;;;;;;;8.48;7.50;;;;;;;;;;5055650;28;20469;-84
2022/08/06 03:35:16;;;;;;;7.38;6.68;;;;;;;;;;5073065;28;20044;-82
2022/08/06 03:37:43;;;;;;;7.10;6.40;;;;;;;;;;5073521;28;20048;-79
2022/08/06 03:40:11;;;;;;;8.27;6.03;;;;;;;;;;5073448;28;20021;-80
2022/08/06 03:42:37;;;;;;;6.18;5.55;;;;;;;;;;5073128;28;20036;-80
2022/08/06 03:45:04;;;;;;;6.82;6.22;;;;;;;;;;5073240;28;20050;-79
2022/08/06 03:47:35;;;;;;;6.63;5.93;;;;;;;;;;5073021;28;20029;-83
2022/08/06 03:50:21;;;;;;;6.50;5.68;;;;;;;;;;5072679;28;20063;-80
2022/08/06 03:52:48;;;;;;;7.05;6.35;;;;;;;;;;5072696;28;20380;-84
2022/08/06 03:55:17;;;;;;;7.75;7.15;;;;;;;;;;5072915;28;20037;-86
2022/08/06 03:57:46;;;;;;;8.30;7.22;;;;;;;;;;5073113;28;20040;-83
2022/08/06 04:00:14;;;;;;;8.73;7.80;;;;;;;;;;5072324;28;20101;-83
2022/08/06 04:02:44;;;;;;;8.57;7.70;;;;;;;;;;5072392;28;20034;-80
2022/08/06 04:05:12;;;;;;;12.88;7.90;;;;;;;;;;5072541;28;20388;-81
2022/08/06 04:07:38;;;;;;;10.32;7.15;;;;;;;;;;5072553;28;20035;-83
2022/08/06 04:10:05;;;;;;;8.00;7.30;;;;;;;;;;5072621;28;20091;-80
2022/08/06 04:12:31;;;;;;;10.85;9.07;;;;;;;;;;5072844;28;20507;-82
2022/08/06 04:14:58;;;;;;;14.57;13.18;;;;;;;;;;5072637;28;20032;-80
2022/08/06 04:17:25;;;;;;;15.88;14.23;;;;;;;;;;5072770;28;20036;-83
2022/08/06 04:19:51;;;;;;;14.95;13.65;;;;;;;;;;5072528;28;20057;-80
2022/08/06 04:22:17;;;;;;;12.55;11.30;;;;;;;;;;5072630;28;20111;-83
2022/08/06 04:24:44;;;;;;;11.35;10.18;;;;;;;;;;5072353;28;20460;-83
2022/08/06 04:27:10;;;;;;;12.43;11.18;;;;;;;;;;5072495;28;20032;-83
2022/08/06 04:29:38;;;;;;;11.90;10.70;;;;;;;;;;5072250;28;20142;-82
2022/08/06 04:32:06;;;;;;;10.50;9.10;;;;;;;;;;5072098;28;20076;-83
2022/08/06 04:34:32;;;;;;;10.20;8.45;;;;;;;;;;5072552;28;20083;-84
2022/08/06 04:36:59;;;;;;;11.02;8.88;;;;;;;;;;5072395;28;20043;-84
2022/08/06 04:39:26;;;;;;;9.98;8.98;;;;;;;;;;5072193;28;20032;-80
2022/08/06 04:41:52;;;;;;;10.48;9.48;;;;;;;;;;5072523;28;20476;-81
2022/08/06 04:44:18;;;;;;;14.98;10.70;;;;;;;;;;5054296;28;20396;-79
2022/08/06 04:46:49;;;;;;;18.13;13.45;;;;;;;;;;5071801;28;20037;-85
2022/08/06 04:49:17;;;;;;;20.75;16.10;;;;;;;;;;5071999;28;20032;-84
2022/08/06 04:52:02;;;;;;;23.55;17.80;;;;;;;;;;5072320;28;20086;-81
2022/08/06 04:54:28;;;;;;;18.10;16.10;;;;;;;;;;5072280;28;20028;-86
2022/08/06 04:56:57;;;;;;;23.75;21.40;;;;;;;;;;5072148;28;20384;-84
2022/08/06 04:59:23;;;;;;;15.73;14.00;;;;;;;;;;5072119;28;20511;-84
2022/08/06 05:01:49;;;;;;;13.23;11.93;;;;;;;;;;5071838;28;20114;-83
2022/08/06 05:04:15;;;;;;;11.80;10.43;;;;;;;;;;5054211;28;20036;-83
2022/08/06 05:07:02;;;;;;;9.85;8.98;;;;;;;;;;5054146;28;20480;-84
2022/08/06 05:09:28;;;;;;;10.63;9.25;;;;;;;;;;5072183;28;20115;-81
2022/08/06 05:11:57;;;;;;;10.38;9.23;;;;;;;;;;5071940;28;20490;-82
2022/08/06 05:14:26;;;;;;;9.52;8.57;;;;;;;;;;5072155;28;20055;-80
2022/08/06 05:16:54;;;;;;;8.30;7.50;;;;;;;;;;5072102;28;20032;-84
2022/08/06 05:19:26;;;;;;;10.57;8.77;;;;;;;;;;5072018;28;20035;-77
2022/08/06 05:21:52;;;;;;;10.82;9.05;;;;;;;;;;5075690;28;20086;-80
2022/08/06 05:24:19;;;;;;;11.75;10.55;;;;;;;;;;5075758;28;20039;-79
2022/08/06 05:26:46;;;;;;;11.52;10.43;;;;;;;;;;5075540;28;20044;-80
2022/08/06 05:29:12;;;;;;;15.00;13.50;;;;;;;;;;5075732;28;20036;-78
2022/08/06 05:31:42;;;;;;;16.13;13.13;;;;;;;;;;5075473;28;20056;-80
2022/08/06 05:34:11;;;;;;;14.73;13.23;;;;;;;;;;5075709;28;20107;-80
2022/08/06 05:36:38;;;;;;;14.40;12.85;;;;;;;;;;5075426;28;20079;-77
2022/08/06 05:39:04;;;;;;;15.45;13.90;;;;;;;;;;5075747;28;20050;-78
2022/08/06 05:41:30;;;;;;;15.45;13.95;;;;;;;;;;5075441;28;20059;-80
2022/08/06 05:43:58;;;;;;;17.58;15.82;;;;;;;;;;5075520;28;20479;-77
2022/08/06 05:46:25;;;;;;;16.88;15.18;;;;;;;;;;5073027;28;20122;-78
2022/08/06 05:49:10;;;;;;;14.55;13.18;;;;;;;;;;5055450;28;20041;-77
2022/08/06 05:51:54;;;;;;;13.55;12.15;;;;;;;;;;5069805;28;20044;-78
2022/08/06 05:54:33;;;;;;;12.88;11.52;;;;;;;;;;5075408;28;20044;-80
2022/08/06 05:57:03;;;;;;;10.80;9.80;;;;;;;;;;5053329;28;20071;-79
2022/08/06 05:59:30;;;;;;;11.15;10.15;;;;;;;;;;5055451;28;20038;-79
2022/08/06 06:01:57;;;;;;;10.18;9.23;;;;;;;;;;5074765;28;20033;-80
2022/08/06 06:04:23;;;;;;;9.02;8.15;;;;;;;;;;5073893;28;20040;-78
2022/08/06 06:06:50;;;;;;;10.23;9.23;;;;;;;;;;5072653;28;20041;-78
2022/08/06 06:09:16;;;;;;;9.23;8.45;;;;;;;;;;5074013;28;20115;-80
2022/08/06 06:11:43;;;;;;;8.90;8.07;;;;;;;;;;5075033;28;20031;-80
2022/08/06 06:14:21;;;;;;;7.97;7.28;;;;;;;;;;5074835;28;20025;-78
2022/08/06 06:16:58;;;;;;;7.95;7.18;;;;;;;;;;5075099;28;20493;-80
2022/08/06 06:19:30;;;;;;;8.57;7.78;;;;;;;;;;5074945;28;20372;-78
2022/08/06 06:22:16;;;;;;;7.40;6.22;;;;;;;;;;5056762;28;20047;-81
2022/08/06 06:24:54;;;;;;;6.93;6.32;;;;;;;;;;5074936;28;20028;-79
2022/08/06 06:27:26;;;;;;;11.57;7.97;;;;;;;;;;5064291;28;20032;-79
2022/08/06 06:30:11;;;;;;;8.82;7.15;;;;;;;;;;5056779;28;20419;-79
2022/08/06 06:32:41;;;;;;;6.78;6.15;;;;;;;;;;5072920;28;20550;-78
2022/08/06 06:35:22;;;;;;;5.70;5.13;;;;;;;;;;5062752;28;20033;-81
2022/08/06 06:38:07;;;;;;;7.43;6.57;;;;;;;;;;5054623;28;20044;-80
2022/08/06 06:40:48;;;;;;;6.82;6.00;;;;;;;;;;5072044;28;20158;-78
2022/08/06 06:43:21;;;;;;;7.18;5.65;;;;;;;;;;5074488;28;20082;-80
2022/08/06 06:46:06;;;;;;;6.67;5.87;;;;;;;;;;5074325;28;20027;-78
2022/08/06 06:48:42;;;;;;;6.43;5.47;;;;;;;;;;5056369;28;20089;-80
2022/08/06 06:51:10;;;;;;;6.35;5.78;;;;;;;;;;5056283;28;20032;-79
2022/08/06 06:53:40;;;;;;;7.10;6.40;;;;;;;;;;5073963;28;20028;-78
2022/08/06 06:56:07;;;;;;;7.05;6.22;;;;;;;;;;5067891;28;20036;-77
2022/08/06 06:58:33;;;;;;;6.32;5.25;;;;;;;;;;5058347;28;20067;-81
2022/08/06 07:01:00;;;;;;;6.55;5.88;;;;;;;;;;5056594;28;20076;-79
2022/08/06 07:03:28;;;;;;;7.70;6.22;;;;;;;;;;5063265;28;20041;-82
2022/08/06 07:05:55;;;;;;;9.73;6.70;;;;;;;;;;5036141;28;20052;-79
2022/08/06 07:08:22;;;;;;;8.38;6.30;;;;;;;;;;5036137;28;20044;-79
2022/08/06 07:10:49;;;;;;;6.88;5.60;;;;;;;;;;5053755;28;20400;-80
2022/08/06 07:13:16;;;;;;;7.00;5.72;;;;;;;;;;5054683;28;20021;-79
2022/08/06 07:15:42;;;;;;;5.15;4.47;;;;;;;;;;5073509;28;20054;-78
2022/08/06 07:18:09;;;;;;;4.75;4.35;;;;;;;;;;5073830;28;20033;-78
2022/08/06 07:20:36;;;;;;;4.90;4.50;;;;;;;;;;5071442;28;20039;-78
2022/08/06 07:23:03;;;;;;;4.70;4.30;;;;;;;;;;5052450;28;20123;-80
2022/08/06 07:25:29;;;;;;;4.63;4.22;;;;;;;;;;5060347;28;20040;-79
2022/08/06 07:27:55;;;;;;;4.93;4.32;;;;;;;;;;5073900;28;20036;-79
2022/08/06 07:30:22;;;;;;;4.07;3.55;;;;;;;;;;5073219;28;20076;-77
2022/08/06 07:32:49;;;;;;;4.45;4.03;;;;;;;;;;5073032;28;20158;-78
2022/08/06 07:35:16;;;;;;;4.70;4.32;;;;;;;;;;5074063;28;20037;-83
2022/08/06 07:37:55;;;;;;;5.10;4.30;;;;;;;;;;5054904;28;20505;-79
2022/08/06 07:40:41;;;;;;;4.53;4.13;;;;;;;;;;5064187;28;20039;-83
2022/08/06 07:43:29;;;;;;;5.53;4.93;;;;;;;;;;5053005;28;20048;-83
2022/08/06 07:45:56;;;;;;;4.45;4.05;;;;;;;;;;5053058;28;20496;-82
2022/08/06 07:48:32;;;;;;;5.20;4.10;;;;;;;;;;5053314;28;20417;-79
2022/08/06 07:50:59;;;;;;;4.72;3.75;;;;;;;;;;5053284;28;20110;-82
2022/08/06 07:53:26;;;;;;;4.47;4.07;;;;;;;;;;5053251;28;20060;-83
2022/08/06 07:55:52;;;;;;;4.30;3.90;;;;;;;;;;5066353;28;20409;-85
2022/08/06 07:58:19;;;;;;;4.93;4.43;;;;;;;;;;5059409;28;20029;-84
2022/08/06 08:00:47;;;;;;;4.53;4.13;;;;;;;;;;5063624;28;20102;-82
2022/08/06 08:08:45;;;;;;;3.70;3.40;;;;;;;;;;5073063;28;20056;-80
2022/08/06 08:11:13;;;;;;;3.78;3.47;;;;;;;;;;5072776;28;20494;-81
2022/08/06 08:13:39;;;;;;;4.78;3.45;;;;;;;;;;5073198;28;20060;-80
2022/08/06 08:16:07;;;;;;;4.55;3.85;;;;;;;;;;5072606;28;20086;-81
2022/08/06 08:18:34;;;;;;;4.70;4.15;;;;;;;;;;5055058;28;20042;-82
2022/08/06 08:21:01;;;;;;;4.43;4.00;;;;;;;;;;5072873;28;20041;-80
2022/08/06 08:23:29;;;;;;;4.13;3.53;;;;;;;;;;5073056;28;20043;-84
2022/08/06 08:25:58;;;;;;;4.30;3.90;;;;;;;;;;5066467;28;20036;-81
2022/08/06 08:28:24;;;;;;;5.10;4.60;;;;;;;;;;5072975;28;20043;-80
2022/08/06 08:30:50;;;;;;;4.65;4.32;;;;;;;;;;5054206;28;20045;-81
2022/08/06 08:33:20;;;;;;;4.20;3.90;;;;;;;;;;5072447;28;20036;-81
2022/08/06 08:35:47;;;;;;;4.13;3.70;;;;;;;;;;5072369;28;20446;-75
2022/08/06 08:38:13;;;;;;;4.43;4.13;;;;;;;;;;5072480;28;20036;-83
2022/08/06 08:40:39;;;;;;;4.97;4.45;;;;;;;;;;5065608;28;20040;-82
2022/08/06 08:43:05;;;;;;;4.18;3.78;;;;;;;;;;5060939;28;20033;-85
2022/08/06 08:45:32;;;;;;;4.13;3.83;;;;;;;;;;5060345;28;20029;-85
2022/08/06 08:47:59;;;;;;;4.57;4.18;;;;;;;;;;5069556;28;20063;-81
2022/08/06 08:50:29;;;;;;;4.68;4.15;;;;;;;;;;5059086;28;20040;-81
2022/08/06 08:53:02;;;;;;;6.28;4.45;;;;;;;;;;5047008;28;20032;-80
2022/08/06 08:55:28;;;;;;;3.77;3.53;;;;;;;;;;5071611;28;20438;-81
2022/08/06 08:57:56;;;;;;;4.57;4.18;;;;;;;;;;5054192;28;20640;-81
2022/08/06 09:00:22;;;;;;;4.75;4.00;;;;;;;;;;5054518;28;20067;-83
2022/08/06 09:02:49;;;;;;;5.55;5.03;;;;;;;;;;5071038;28;20033;-83
2022/08/06 09:05:16;;;;;;;4.45;4.05;;;;;;;;;;5062722;28;20146;-81
2022/08/06 09:07:42;;;;;;;4.53;4.10;;;;;;;;;;5057105;28;20036;-84
2022/08/06 09:10:09;;;;;;;4.25;3.88;;;;;;;;;;5053907;28;20064;-80
2022/08/06 09:12:36;;;;;;;5.65;4.13;;;;;;;;;;5072512;28;20055;-83
2022/08/06 09:15:02;;;;;;;4.80;3.80;;;;;;;;;;5071925;28;20056;-82
2022/08/06 09:17:32;;;;;;;6.72;4.30;;;;;;;;;;5054131;28;20036;-82
2022/08/06 09:19:58;;;;;;;4.53;4.13;;;;;;;;;;5054195;28;20115;-84
2022/08/06 09:22:24;;;;;;;4.20;3.85;;;;;;;;;;5072422;28;20041;-84
2022/08/06 09:24:51;;;;;;;8.05;4.13;;;;;;;;;;5072317;28;20036;-85
2022/08/06 09:27:18;;;;;;;4.85;4.35;;;;;;;;;;5072109;28;20103;-83
2022/08/06 09:29:49;;;;;;;5.32;4.82;;;;;;;;;;5054005;28;20059;-83
2022/08/06 09:32:35;;;;;;;4.65;4.15;;;;;;;;;;5071849;28;20492;-84
2022/08/06 09:35:01;;;;;;;5.75;5.25;;;;;;;;;;5072069;28;20530;-85
2022/08/06 09:37:28;;;;;;;5.78;5.18;;;;;;;;;;5071806;28;20116;-86
2022/08/06 09:39:54;;;;;;;5.00;4.60;;;;;;;;;;5053732;28;20032;-86
2022/08/06 09:42:39;;;;;;;5.40;4.90;;;;;;;;;;5072003;28;20041;-82
2022/08/06 09:45:06;;;;;;;4.82;4.43;;;;;;;;;;5071964;28;20037;-82
2022/08/06 09:47:32;;;;;;;4.97;4.47;;;;;;;;;;5053889;28;20116;-83
2022/08/06 09:49:58;;;;;;;5.10;4.70;;;;;;;;;;5071618;28;20475;-81
2022/08/06 09:52:24;;;;;;;5.07;4.57;;;;;;;;;;5071986;28;20074;-83
2022/08/06 09:54:50;;;;;;;6.15;4.90;;;;;;;;;;5071168;28;20028;-84
2022/08/06 09:57:16;;;;;;;5.15;4.68;;;;;;;;;;5061198;28;20029;-82
2022/08/06 09:59:44;;;;;;;4.88;4.38;;;;;;;;;;5049486;28;20040;-85
2022/08/06 10:02:29;;;;;;;5.88;4.80;;;;;;;;;;5060531;28;20043;-84
2022/08/06 10:05:06;;;;;;;4.53;4.20;;;;;;;;;;5035403;28;20045;-87
2022/08/06 10:07:39;;;;;;;4.25;3.85;;;;;;;;;;5036895;28;20488;-86
2022/08/06 10:10:08;;;;;;;4.82;4.50;;;;;;;;;;5052580;28;20040;-87
2022/08/06 10:12:35;;;;;;;5.25;4.75;;;;;;;;;;5057245;28;20398;-84
2022/08/06 10:15:01;;;;;;;5.03;4.63;;;;;;;;;;5057021;28;20044;-86
2022/08/06 10:17:27;;;;;;;4.88;4.47;;;;;;;;;;5057489;28;20074;-86
2022/08/06 10:20:08;;;;;;;4.70;4.35;;;;;;;;;;5057132;28;20039;-87
2022/08/06 10:22:35;;;;;;;4.85;4.05;;;;;;;;;;5075126;28;20028;-85
2022/08/06 10:25:02;;;;;;;4.15;3.78;;;;;;;;;;5057106;28;20036;-85
2022/08/06 10:27:34;;;;;;;4.60;4.30;;;;;;;;;;5075254;28;20067;-92
2022/08/06 10:30:06;;;;;;;4.25;3.92;;;;;;;;;;5043993;28;20040;-90
2022/08/06 10:32:36;;;;;;;4.15;3.42;;;;;;;;;;5036802;28;20044;-86
2022/08/06 10:35:24;;;;;;;4.22;3.83;;;;;;;;;;5043139;28;20113;-86
2022/08/06 10:38:10;;;;;;;;;;;;;;;;;;;;;
2022/08/06 10:40:47;;;;;;;3.90;3.60;;;;;;;;;;5074904;28;20037;-88
2022/08/06 10:43:24;;;;;;;3.72;3.42;;;;;;;;;;5056075;28;20450;-89
2022/08/06 10:45:53;;;;;;;3.63;3.42;;;;;;;;;;5056814;28;20035;-90
2022/08/06 10:48:25;;;;;;;3.80;3.53;;;;;;;;;;5054151;28;20108;-87
2022/08/06 10:50:57;;;;;;;3.03;2.83;;;;;;;;;;5056527;28;20036;-87
2022/08/06 10:53:31;;;;;;;3.78;3.47;;;;;;;;;;5056285;28;20028;-90
2022/08/06 10:56:04;;;;;;;3.45;3.25;;;;;;;;;;5057007;28;20032;-87
2022/08/06 10:58:34;;;;;;;4.28;3.85;;;;;;;;;;5055135;28;20032;-88
2022/08/06 11:01:19;;;;;;;4.45;4.05;;;;;;;;;;5056520;28;20036;-89
2022/08/06 11:03:54;;;;;;;3.80;3.42;;;;;;;;;;5045464;28;20043;-87
2022/08/06 11:06:40;;;;;;;3.50;3.20;;;;;;;;;;5055164;28;20048;-86
2022/08/06 11:09:12;;;;;;;4.65;3.47;;;;;;;;;;5074213;28;20032;-87
2022/08/06 11:11:44;;;;;;;4.13;3.47;;;;;;;;;;5053592;28;20458;-86
2022/08/06 11:14:10;;;;;;;3.33;3.03;;;;;;;;;;5036215;28;20025;-85
2022/08/06 11:16:39;;;;;;;3.45;3.13;;;;;;;;;;5059167;28;20484;-86
2022/08/06 11:19:06;;;;;;;3.95;3.47;;;;;;;;;;5065432;28;20403;-87
2022/08/06 11:21:39;;;;;;;3.88;3.58;;;;;;;;;;5073639;28;20095;-86
2022/08/06 11:24:06;;;;;;;4.10;3.80;;;;;;;;;;5056018;28;20124;-87
2022/08/06 11:26:34;;;;;;;4.45;3.83;;;;;;;;;;5056418;28;20036;-87
2022/08/06 11:29:01;;;;;;;6.68;3.55;;;;;;;;;;5062190;28;20028;-84
2022/08/06 11:31:32;;;;;;;4.28;3.70;;;;;;;;;;5062799;28;20059;-86
2022/08/06 11:33:59;;;;;;;4.50;3.53;;;;;;;;;;5053756;28;20059;-86
2022/08/06 11:36:26;;;;;;;3.60;3.30;;;;;;;;;;5066171;28;20032;-84
2022/08/06 11:38:52;;;;;;;3.58;3.28;;;;;;;;;;5055463;28;20441;-84
2022/08/06 11:41:21;;;;;;;3.65;3.35;;;;;;;;;;5055976;28;20036;-84
2022/08/06 11:43:47;;;;;;;3.47;3.28;;;;;;;;;;5055728;28;20506;-85
2022/08/06 11:46:25;;;;;;;3.63;3.17;;;;;;;;;;5042485;28;20523;-83
2022/08/06 11:49:03;;;;;;;4.45;3.45;;;;;;;;;;5054414;28;20110;-86
2022/08/06 11:51:50;;;;;;;3.90;3.50;;;;;;;;;;5036189;28;20116;-84
2022/08/06 11:54:21;;;;;;;3.67;3.38;;;;;;;;;;5042128;28;20483;-85
2022/08/06 11:57:06;;;;;;;5.30;3.25;;;;;;;;;;5073930;28;20035;-86
2022/08/06 11:59:39;;;;;;;4.03;3.72;;;;;;;;;;5055644;28;20131;-86
2022/08/06 12:02:19;;;;;;;3.78;3.47;;;;;;;;;;5056083;28;20037;-84
2022/08/06 12:04:46;;;;;;;4.35;3.45;;;;;;;;;;5055647;28;20032;-85
2022/08/06 12:07:23;;;;;;;3.80;3.38;;;;;;;;;;5074000;28;20043;-84
2022/08/06 12:09:59;;;;;;;4.10;3.80;;;;;;;;;;5056069;28;20048;-85
2022/08/06 12:12:28;;;;;;;3.97;3.58;;;;;;;;;;5055639;28;20085;-88
2022/08/06 12:14:58;;;;;;;4.47;4.07;;;;;;;;;;5055968;28;20035;-86
2022/08/06 12:17:26;;;;;;;3.60;3.05;;;;;;;;;;5073840;28;20035;-84
2022/08/06 12:19:53;;;;;;;3.28;3.08;;;;;;;;;;5073775;28;20044;-83
2022/08/06 12:22:21;;;;;;;3.75;3.40;;;;;;;;;;5073634;28;20040;-86
2022/08/06 12:24:56;;;;;;;3.97;3.40;;;;;;;;;;5056111;28;20036;-85
2022/08/06 12:27:23;;;;;;;4.20;3.03;;;;;;;;;;5055806;28;20119;-85
2022/08/06 12:29:55;;;;;;;4.15;3.58;;;;;;;;;;5072731;28;20039;-85
2022/08/06 12:32:24;;;;;;;3.25;3.03;;;;;;;;;;5055511;28;20056;-88
2022/08/06 12:34:51;;;;;;;3.47;3.05;;;;;;;;;;5055684;28;20040;-86
2022/08/06 12:37:17;;;;;;;3.50;3.20;;;;;;;;;;5073969;28;20047;-87
2022/08/06 12:42:29;;;;;;;3.60;2.85;;;;;;;;;;5074354;28;20032;-85
2022/08/06 12:44:55;;;;;;;3.05;2.80;;;;;;;;;;5055922;28;20120;-85
2022/08/06 12:47:22;;;;;;;2.35;2.10;;;;;;;;;;5073290;28;20060;-83
2022/08/06 12:49:48;;;;;;;2.92;2.72;;;;;;;;;;5055348;28;20042;-85
2022/08/06 12:52:20;;;;;;;2.20;2.00;;;;;;;;;;5055427;28;20039;-85
2022/08/06 12:54:46;;;;;;;2.38;2.17;;;;;;;;;;5073344;28;20024;-81
2022/08/06 12:57:31;;;;;;;3.70;2.90;;;;;;;;;;5073331;28;20064;-83
2022/08/06 12:59:57;;;;;;;3.30;2.95;;;;;;;;;;5073176;28;20513;-83
2022/08/06 13:02:25;;;;;;;2.47;2.28;;;;;;;;;;5072893;28;20029;-84
2022/08/06 13:04:52;;;;;;;3.00;2.70;;;;;;;;;;5053154;28;20037;-80
2022/08/06 13:07:26;;;;;;;2.30;2.08;;;;;;;;;;5063816;28;20393;-83
2022/08/06 13:09:54;;;;;;;3.28;2.08;;;;;;;;;;5063507;28;20041;-82
2022/08/06 13:12:21;;;;;;;3.45;2.20;;;;;;;;;;5053119;28;20029;-80
2022/08/06 13:14:52;;;;;;;2.67;1.85;;;;;;;;;;5056491;28;20109;-84
2022/08/06 13:17:39;;;;;;;2.08;1.98;;;;;;;;;;5067176;28;20028;-84
2022/08/06 13:20:05;;;;;;;2.80;2.10;;;;;;;;;;5068271;28;20033;-81
2022/08/06 13:22:31;;;;;;;3.03;2.00;;;;;;;;;;5053996;28;20034;-80
2022/08/06 13:25:19;;;;;;;2.92;2.22;;;;;;;;;;5057075;28;20163;-84
2022/08/06 13:27:45;;;;;;;2.35;2.25;;;;;;;;;;5053040;28;20036;-82
2022/08/06 13:30:12;;;;;;;4.05;2.40;;;;;;;;;;5070323;28;20029;-84
2022/08/06 13:32:40;;;;;;;3.05;2.00;;;;;;;;;;5065485;28;20115;-81
2022/08/06 13:35:11;;;;;;;2.15;1.95;;;;;;;;;;5054604;28;20491;-81
2022/08/06 13:37:44;;;;;;;2.45;2.03;;;;;;;;;;5070626;28;20033;-81
2022/08/06 13:40:10;;;;;;;2.50;2.30;;;;;;;;;;5073233;28;20029;-82
2022/08/06 13:43:09;;;;;;;4.53;3.50;;;;;;;;;;5076704;28;20037;-85
2022/08/06 13:45:35;;;;;;;4.93;4.43;;;;;;;;;;5022377;28;20047;-82
2022/08/06 13:48:09;;;;;;;3.13;2.85;;;;;;;;;;5057050;28;20483;-82
2022/08/06 13:50:55;;;;;;;2.55;2.35;;;;;;;;;;5075511;28;20048;-80
2022/08/06 13:53:21;;;;;;;3.70;2.30;;;;;;;;;;5075672;28;20032;-80
2022/08/06 13:55:47;;;;;;;2.58;2.38;;;;;;;;;;5075328;28;20036;-82
2022/08/06 13:58:13;;;;;;;3.00;2.15;;;;;;;;;;5075530;28;20036;-81
2022/08/06 14:00:41;;;;;;;8.98;5.85;;;;;;;;;;5075459;28;20037;-81
2022/08/06 14:03:07;;;;;;;5.80;3.17;;;;;;;;;;5075519;28;20051;-80
2022/08/06 14:05:33;;;;;;;3.85;2.65;;;;;;;;;;5057398;28;20032;-85
2022/08/06 14:07:59;;;;;;;2.95;2.00;;;;;;;;;;5075546;28;20036;-84
2022/08/06 14:10:25;;;;;;;2.20;2.00;;;;;;;;;;5075279;28;20047;-81
2022/08/06 14:15:36;;;;;;;3.00;2.42;;;;;;;;;;5075038;28;20090;-80
2022/08/06 14:18:02;;;;;;;2.92;2.20;;;;;;;;;;5075723;28;20530;-81
2022/08/06 14:20:29;;;;;;;4.53;1.92;;;;;;;;;;5057181;28;20029;-81
2022/08/06 14:22:55;;;;;;;2.45;2.05;;;;;;;;;;5075367;28;20090;-84
2022/08/06 14:25:22;;;;;;;2.03;1.80;;;;;;;;;;5074960;28;20028;-84
2022/08/06 14:27:49;;;;;;;2.35;2.15;;;;;;;;;;5075326;28;20060;-80
2022/08/06 14:30:16;;;;;;;3.10;2.22;;;;;;;;;;5074714;28;20075;-82
2022/08/06 14:32:43;;;;;;;3.10;2.40;;;;;;;;;;5057254;28;20028;-83
2022/08/06 14:35:09;;;;;;;3.15;2.33;;;;;;;;;;5075342;28;20028;-82
2022/08/06 14:37:36;;;;;;;2.63;2.42;;;;;;;;;;5074810;28;20031;-80
2022/08/06 14:40:03;;;;;;;2.78;2.22;;;;;;;;;;5056682;28;20088;-80
2022/08/06 14:45:16;;;;;;;3.75;2.42;;;;;;;;;;5074947;28;20043;-82
2022/08/06 14:47:43;;;;;;;2.30;2.10;;;;;;;;;;5056925;28;20032;-80
2022/08/06 14:50:09;;;;;;;2.42;2.00;;;;;;;;;;5074114;28;20037;-79
2022/08/06 14:52:35;;;;;;;2.67;1.88;;;;;;;;;;5055822;28;20037;-83
2022/08/06 14:55:01;;;;;;;2.22;2.00;;;;;;;;;;5074789;28;20029;-82
2022/08/06 14:57:28;;;;;;;2.60;2.20;;;;;;;;;;5074922;28;20040;-83
2022/08/06 14:59:54;;;;;;;3.58;2.15;;;;;;;;;;5075740;28;20040;-83
2022/08/06 15:02:25;;;;;;;3.33;2.67;;;;;;;;;;5075223;28;20033;-83
2022/08/06 15:04:52;;;;;;;3.17;2.33;;;;;;;;;;5056950;28;20087;-83
2022/08/06 15:07:18;;;;;;;2.88;2.40;;;;;;;;;;5074777;28;20044;-81